sensor_id;sensor_type;location;lat;lon;timestamp;P1;durP1;ratioP1;P2;durP2;ratioP2
58928;SDS011;44713;53.378;10.022;2023-02-15T00:01:37;71.68;;;33.70;;
58928;SDS011;44713;53.378;10.022;2023-02-15T00:04:03;68.63;;;33.97;;
58928;SDS011;44713;53.378;10.022;2023-02-15T00:06:29;73.13;;;34.03;;
58928;SDS011;44713;53.378;10.022;2023-02-15T00:08:55;84.20;;;34.97;;
58928;SDS011;44713;53.378;10.022;2023-02-15T00:11:21;65.40;;;30.38;;
58928;SDS011;44713;53.378;10.022;2023-02-15T00:16:36;76.35;;;35.45;;
58928;SDS011;44713;53.378;10.022;2023-02-15T00:19:02;65.38;;;33.30;;
58928;SDS011;44713;53.378;10.022;2023-02-15T00:21:29;61.78;;;31.10;;
58928;SDS011;44713;53.378;10.022;2023-02-15T00:23:56;74.18;;;34.85;;
58928;SDS011;44713;53.378;10.022;2023-02-15T00:26:23;102.20;;;35.47;;
58928;SDS011;44713;53.378;10.022;2023-02-15T00:28:49;65.78;;;31.40;;
58928;SDS011;44713;53.378;10.022;2023-02-15T00:31:15;84.88;;;36.00;;
58928;SDS011;44713;53.378;10.022;2023-02-15T00:33:40;85.20;;;34.42;;
58928;SDS011;44713;53.378;10.022;2023-02-15T00:36:06;75.53;;;35.30;;
58928;SDS011;44713;53.378;10.022;2023-02-15T00:38:33;71.13;;;34.95;;
58928;SDS011;44713;53.378;10.022;2023-02-15T00:41:00;86.70;;;36.90;;
58928;SDS011;44713;53.378;10.022;2023-02-15T00:43:27;76.88;;;34.90;;
58928;SDS011;44713;53.378;10.022;2023-02-15T00:45:54;90.05;;;36.50;;
58928;SDS011;44713;53.378;10.022;2023-02-15T00:48:20;90.20;;;36.85;;
58928;SDS011;44713;53.378;10.022;2023-02-15T00:50:50;72.13;;;34.17;;
58928;SDS011;44713;53.378;10.022;2023-02-15T00:53:25;73.72;;;35.42;;
58928;SDS011;44713;53.378;10.022;2023-02-15T00:55:51;73.38;;;32.63;;
58928;SDS011;44713;53.378;10.022;2023-02-15T00:58:17;83.93;;;34.40;;
58928;SDS011;44713;53.378;10.022;2023-02-15T01:00:44;88.05;;;35.75;;
58928;SDS011;44713;53.378;10.022;2023-02-15T01:03:11;87.40;;;34.83;;
58928;SDS011;44713;53.378;10.022;2023-02-15T01:05:38;65.75;;;30.30;;
58928;SDS011;44713;53.378;10.022;2023-02-15T01:08:04;86.60;;;36.22;;
58928;SDS011;44713;53.378;10.022;2023-02-15T01:10:29;74.68;;;36.50;;
58928;SDS011;44713;53.378;10.022;2023-02-15T01:12:55;67.10;;;31.73;;
58928;SDS011;44713;53.378;10.022;2023-02-15T01:15:21;125.85;;;34.97;;
58928;SDS011;44713;53.378;10.022;2023-02-15T01:17:47;70.00;;;32.97;;
58928;SDS011;44713;53.378;10.022;2023-02-15T01:20:18;69.07;;;34.03;;
58928;SDS011;44713;53.378;10.022;2023-02-15T01:22:44;60.90;;;31.00;;
58928;SDS011;44713;53.378;10.022;2023-02-15T01:25:10;71.45;;;32.55;;
58928;SDS011;44713;53.378;10.022;2023-02-15T01:27:35;71.40;;;32.75;;
58928;SDS011;44713;53.378;10.022;2023-02-15T01:30:00;85.53;;;34.85;;
58928;SDS011;44713;53.378;10.022;2023-02-15T01:32:26;90.43;;;34.75;;
58928;SDS011;44713;53.378;10.022;2023-02-15T01:34:52;82.10;;;33.83;;
58928;SDS011;44713;53.378;10.022;2023-02-15T01:37:18;95.63;;;35.63;;
58928;SDS011;44713;53.378;10.022;2023-02-15T01:39:44;62.40;;;31.35;;
58928;SDS011;44713;53.378;10.022;2023-02-15T01:42:10;62.38;;;29.20;;
58928;SDS011;44713;53.378;10.022;2023-02-15T01:44:49;74.88;;;30.73;;
58928;SDS011;44713;53.378;10.022;2023-02-15T01:50:18;69.30;;;32.00;;
58928;SDS011;44713;53.378;10.022;2023-02-15T01:52:49;78.43;;;32.50;;
58928;SDS011;44713;53.378;10.022;2023-02-15T01:55:45;89.05;;;33.38;;
58928;SDS011;44713;53.378;10.022;2023-02-15T01:58:15;57.80;;;26.77;;
58928;SDS011;44713;53.378;10.022;2023-02-15T02:00:41;55.30;;;29.20;;
58928;SDS011;44713;53.378;10.022;2023-02-15T02:03:08;74.57;;;32.67;;
58928;SDS011;44713;53.378;10.022;2023-02-15T02:05:33;63.60;;;32.78;;
58928;SDS011;44713;53.378;10.022;2023-02-15T02:07:59;68.50;;;31.23;;
58928;SDS011;44713;53.378;10.022;2023-02-15T02:10:26;90.30;;;31.30;;
58928;SDS011;44713;53.378;10.022;2023-02-15T02:12:57;75.03;;;31.50;;
58928;SDS011;44713;53.378;10.022;2023-02-15T02:16:08;72.75;;;29.58;;
58928;SDS011;44713;53.378;10.022;2023-02-15T02:21:21;70.82;;;29.80;;
58928;SDS011;44713;53.378;10.022;2023-02-15T02:26:38;111.90;;;28.23;;
58928;SDS011;44713;53.378;10.022;2023-02-15T02:35:00;50.30;;;27.52;;
58928;SDS011;44713;53.378;10.022;2023-02-15T02:46:02;70.05;;;27.92;;
58928;SDS011;44713;53.378;10.022;2023-02-15T02:48:33;54.47;;;26.05;;
58928;SDS011;44713;53.378;10.022;2023-02-15T02:50:59;52.63;;;28.95;;
58928;SDS011;44713;53.378;10.022;2023-02-15T02:53:25;56.63;;;27.50;;
58928;SDS011;44713;53.378;10.022;2023-02-15T02:55:54;52.83;;;27.75;;
58928;SDS011;44713;53.378;10.022;2023-02-15T02:58:38;50.20;;;24.88;;
58928;SDS011;44713;53.378;10.022;2023-02-15T03:02:09;47.47;;;27.55;;
58928;SDS011;44713;53.378;10.022;2023-02-15T03:04:32;70.05;;;26.33;;
58928;SDS011;44713;53.378;10.022;2023-02-15T03:07:06;56.08;;;24.35;;
58928;SDS011;44713;53.378;10.022;2023-02-15T03:09:36;44.15;;;24.27;;
58928;SDS011;44713;53.378;10.022;2023-02-15T03:12:18;55.58;;;26.98;;
58928;SDS011;44713;53.378;10.022;2023-02-15T03:14:48;65.05;;;28.05;;
58928;SDS011;44713;53.378;10.022;2023-02-15T03:17:18;59.55;;;26.77;;
58928;SDS011;44713;53.378;10.022;2023-02-15T03:19:47;46.17;;;25.85;;
58928;SDS011;44713;53.378;10.022;2023-02-15T03:24:53;53.45;;;28.33;;
58928;SDS011;44713;53.378;10.022;2023-02-15T03:27:33;76.45;;;28.75;;
58928;SDS011;44713;53.378;10.022;2023-02-15T03:30:03;67.85;;;27.63;;
58928;SDS011;44713;53.378;10.022;2023-02-15T03:32:31;92.78;;;25.83;;
58928;SDS011;44713;53.378;10.022;2023-02-15T03:34:58;64.65;;;28.73;;
58928;SDS011;44713;53.378;10.022;2023-02-15T03:37:32;57.00;;;25.75;;
58928;SDS011;44713;53.378;10.022;2023-02-15T03:43:02;54.53;;;25.40;;
58928;SDS011;44713;53.378;10.022;2023-02-15T03:45:35;52.05;;;22.88;;
58928;SDS011;44713;53.378;10.022;2023-02-15T03:48:04;49.03;;;23.88;;
58928;SDS011;44713;53.378;10.022;2023-02-15T03:50:31;69.93;;;24.10;;
58928;SDS011;44713;53.378;10.022;2023-02-15T03:53:21;81.15;;;26.48;;
58928;SDS011;44713;53.378;10.022;2023-02-15T03:55:47;44.10;;;25.15;;
58928;SDS011;44713;53.378;10.022;2023-02-15T03:58:14;45.88;;;22.73;;
58928;SDS011;44713;53.378;10.022;2023-02-15T04:00:59;59.80;;;24.52;;
58928;SDS011;44713;53.378;10.022;2023-02-15T04:03:52;45.85;;;24.55;;
58928;SDS011;44713;53.378;10.022;2023-02-15T04:06:31;65.03;;;25.08;;
58928;SDS011;44713;53.378;10.022;2023-02-15T04:08:56;42.60;;;25.23;;
58928;SDS011;44713;53.378;10.022;2023-02-15T04:11:40;44.28;;;23.27;;
58928;SDS011;44713;53.378;10.022;2023-02-15T04:14:06;50.25;;;24.38;;
58928;SDS011;44713;53.378;10.022;2023-02-15T04:16:50;48.45;;;25.98;;
58928;SDS011;44713;53.378;10.022;2023-02-15T04:19:15;47.28;;;26.13;;
58928;SDS011;44713;53.378;10.022;2023-02-15T04:21:59;57.85;;;21.40;;
58928;SDS011;44713;53.378;10.022;2023-02-15T04:24:43;44.90;;;23.10;;
58928;SDS011;44713;53.378;10.022;2023-02-15T04:27:27;54.33;;;23.70;;
58928;SDS011;44713;53.378;10.022;2023-02-15T04:29:53;42.70;;;23.23;;
58928;SDS011;44713;53.378;10.022;2023-02-15T04:32:18;40.60;;;20.58;;
58928;SDS011;44713;53.378;10.022;2023-02-15T04:34:43;48.25;;;24.02;;
58928;SDS011;44713;53.378;10.022;2023-02-15T04:37:09;131.00;;;24.92;;
58928;SDS011;44713;53.378;10.022;2023-02-15T04:39:35;49.50;;;22.38;;
58928;SDS011;44713;53.378;10.022;2023-02-15T04:42:00;62.08;;;21.63;;
58928;SDS011;44713;53.378;10.022;2023-02-15T04:44:26;46.53;;;21.92;;
58928;SDS011;44713;53.378;10.022;2023-02-15T04:46:51;41.22;;;22.48;;
58928;SDS011;44713;53.378;10.022;2023-02-15T04:49:17;66.63;;;22.75;;
58928;SDS011;44713;53.378;10.022;2023-02-15T04:51:42;47.45;;;22.45;;
58928;SDS011;44713;53.378;10.022;2023-02-15T04:54:07;60.72;;;23.85;;
58928;SDS011;44713;53.378;10.022;2023-02-15T04:56:33;53.58;;;22.70;;
58928;SDS011;44713;53.378;10.022;2023-02-15T04:58:59;73.45;;;23.17;;
58928;SDS011;44713;53.378;10.022;2023-02-15T05:01:25;41.22;;;20.52;;
58928;SDS011;44713;53.378;10.022;2023-02-15T05:03:50;38.17;;;22.23;;
58928;SDS011;44713;53.378;10.022;2023-02-15T05:06:16;40.08;;;21.20;;
58928;SDS011;44713;53.378;10.022;2023-02-15T05:08:41;46.15;;;22.48;;
58928;SDS011;44713;53.378;10.022;2023-02-15T05:11:06;40.65;;;22.27;;
58928;SDS011;44713;53.378;10.022;2023-02-15T05:13:32;53.95;;;22.70;;
58928;SDS011;44713;53.378;10.022;2023-02-15T05:15:57;38.10;;;20.33;;
58928;SDS011;44713;53.378;10.022;2023-02-15T05:18:22;52.08;;;20.25;;
58928;SDS011;44713;53.378;10.022;2023-02-15T05:20:48;43.75;;;20.85;;
58928;SDS011;44713;53.378;10.022;2023-02-15T05:23:14;47.55;;;21.63;;
58928;SDS011;44713;53.378;10.022;2023-02-15T05:25:39;36.00;;;20.88;;
58928;SDS011;44713;53.378;10.022;2023-02-15T05:28:24;60.70;;;22.15;;
58928;SDS011;44713;53.378;10.022;2023-02-15T05:30:57;57.03;;;20.13;;
58928;SDS011;44713;53.378;10.022;2023-02-15T05:33:27;72.65;;;22.45;;
58928;SDS011;44713;53.378;10.022;2023-02-15T05:35:52;155.52;;;23.08;;
58928;SDS011;44713;53.378;10.022;2023-02-15T05:38:18;50.70;;;21.02;;
58928;SDS011;44713;53.378;10.022;2023-02-15T05:40:43;46.97;;;22.23;;
58928;SDS011;44713;53.378;10.022;2023-02-15T05:43:08;48.35;;;21.05;;
58928;SDS011;44713;53.378;10.022;2023-02-15T05:45:34;37.30;;;21.85;;
58928;SDS011;44713;53.378;10.022;2023-02-15T05:47:59;41.53;;;21.15;;
58928;SDS011;44713;53.378;10.022;2023-02-15T05:50:25;40.33;;;19.27;;
58928;SDS011;44713;53.378;10.022;2023-02-15T05:52:51;35.70;;;22.17;;
58928;SDS011;44713;53.378;10.022;2023-02-15T05:55:17;45.78;;;20.67;;
58928;SDS011;44713;53.378;10.022;2023-02-15T05:57:43;50.30;;;19.75;;
58928;SDS011;44713;53.378;10.022;2023-02-15T06:00:08;94.65;;;21.67;;
58928;SDS011;44713;53.378;10.022;2023-02-15T06:02:37;34.75;;;18.23;;
58928;SDS011;44713;53.378;10.022;2023-02-15T06:05:04;34.42;;;19.13;;
58928;SDS011;44713;53.378;10.022;2023-02-15T06:07:30;31.05;;;17.95;;
58928;SDS011;44713;53.378;10.022;2023-02-15T06:09:56;44.30;;;19.58;;
58928;SDS011;44713;53.378;10.022;2023-02-15T06:12:21;51.65;;;18.08;;
58928;SDS011;44713;53.378;10.022;2023-02-15T06:14:47;64.95;;;20.50;;
58928;SDS011;44713;53.378;10.022;2023-02-15T06:17:12;72.80;;;18.77;;
58928;SDS011;44713;53.378;10.022;2023-02-15T06:19:37;46.22;;;18.55;;
58928;SDS011;44713;53.378;10.022;2023-02-15T06:22:03;43.17;;;19.13;;
58928;SDS011;44713;53.378;10.022;2023-02-15T06:24:28;45.08;;;18.48;;
58928;SDS011;44713;53.378;10.022;2023-02-15T06:26:54;74.05;;;20.55;;
58928;SDS011;44713;53.378;10.022;2023-02-15T06:29:19;54.05;;;17.58;;
58928;SDS011;44713;53.378;10.022;2023-02-15T06:31:44;43.85;;;18.63;;
58928;SDS011;44713;53.378;10.022;2023-02-15T06:34:10;43.40;;;18.92;;
58928;SDS011;44713;53.378;10.022;2023-02-15T06:36:35;39.65;;;17.75;;
58928;SDS011;44713;53.378;10.022;2023-02-15T06:39:01;38.63;;;16.88;;
58928;SDS011;44713;53.378;10.022;2023-02-15T06:41:28;27.13;;;16.65;;
58928;SDS011;44713;53.378;10.022;2023-02-15T06:43:53;30.45;;;19.10;;
58928;SDS011;44713;53.378;10.022;2023-02-15T06:46:18;57.10;;;17.90;;
58928;SDS011;44713;53.378;10.022;2023-02-15T06:48:44;36.67;;;17.00;;
58928;SDS011;44713;53.378;10.022;2023-02-15T06:51:09;46.83;;;17.25;;
58928;SDS011;44713;53.378;10.022;2023-02-15T06:53:35;37.20;;;17.73;;
58928;SDS011;44713;53.378;10.022;2023-02-15T06:56:04;33.95;;;17.10;;
58928;SDS011;44713;53.378;10.022;2023-02-15T06:58:33;44.60;;;18.40;;
58928;SDS011;44713;53.378;10.022;2023-02-15T07:01:02;45.15;;;18.25;;
58928;SDS011;44713;53.378;10.022;2023-02-15T07:03:28;56.08;;;17.35;;
58928;SDS011;44713;53.378;10.022;2023-02-15T07:05:55;46.00;;;19.48;;
58928;SDS011;44713;53.378;10.022;2023-02-15T07:08:22;34.63;;;17.02;;
58928;SDS011;44713;53.378;10.022;2023-02-15T07:10:48;34.88;;;16.27;;
58928;SDS011;44713;53.378;10.022;2023-02-15T07:13:17;50.08;;;18.23;;
58928;SDS011;44713;53.378;10.022;2023-02-15T07:15:43;36.03;;;16.95;;
58928;SDS011;44713;53.378;10.022;2023-02-15T07:18:09;41.88;;;18.83;;
58928;SDS011;44713;53.378;10.022;2023-02-15T07:20:35;44.00;;;18.02;;
58928;SDS011;44713;53.378;10.022;2023-02-15T07:23:02;30.45;;;15.30;;
58928;SDS011;44713;53.378;10.022;2023-02-15T07:25:27;33.22;;;16.33;;
58928;SDS011;44713;53.378;10.022;2023-02-15T07:27:56;59.40;;;17.88;;
58928;SDS011;44713;53.378;10.022;2023-02-15T07:30:23;29.48;;;15.90;;
58928;SDS011;44713;53.378;10.022;2023-02-15T07:32:48;37.03;;;18.20;;
58928;SDS011;44713;53.378;10.022;2023-02-15T07:35:37;111.55;;;18.65;;
58928;SDS011;44713;53.378;10.022;2023-02-15T07:38:02;35.38;;;17.50;;
58928;SDS011;44713;53.378;10.022;2023-02-15T07:40:28;54.65;;;16.17;;
58928;SDS011;44713;53.378;10.022;2023-02-15T07:42:53;48.78;;;17.08;;
58928;SDS011;44713;53.378;10.022;2023-02-15T07:45:20;47.50;;;16.17;;
58928;SDS011;44713;53.378;10.022;2023-02-15T07:47:46;60.00;;;15.60;;
58928;SDS011;44713;53.378;10.022;2023-02-15T07:50:12;145.93;;;18.15;;
58928;SDS011;44713;53.378;10.022;2023-02-15T07:52:37;48.30;;;16.02;;
58928;SDS011;44713;53.378;10.022;2023-02-15T07:55:03;77.57;;;15.98;;
58928;SDS011;44713;53.378;10.022;2023-02-15T07:57:28;29.40;;;14.90;;
58928;SDS011;44713;53.378;10.022;2023-02-15T07:59:54;47.17;;;16.65;;
58928;SDS011;44713;53.378;10.022;2023-02-15T08:02:19;31.27;;;16.38;;
58928;SDS011;44713;53.378;10.022;2023-02-15T08:04:44;75.60;;;17.35;;
58928;SDS011;44713;53.378;10.022;2023-02-15T08:07:10;57.78;;;16.25;;
58928;SDS011;44713;53.378;10.022;2023-02-15T08:09:35;56.33;;;16.25;;
58928;SDS011;44713;53.378;10.022;2023-02-15T08:12:01;56.40;;;17.08;;
58928;SDS011;44713;53.378;10.022;2023-02-15T08:14:27;33.65;;;15.52;;
58928;SDS011;44713;53.378;10.022;2023-02-15T08:16:55;82.18;;;16.73;;
58928;SDS011;44713;53.378;10.022;2023-02-15T08:19:31;43.60;;;16.30;;
58928;SDS011;44713;53.378;10.022;2023-02-15T08:21:58;54.28;;;16.33;;
58928;SDS011;44713;53.378;10.022;2023-02-15T08:24:29;46.17;;;16.80;;
58928;SDS011;44713;53.378;10.022;2023-02-15T08:26:57;66.47;;;15.55;;
58928;SDS011;44713;53.378;10.022;2023-02-15T08:29:24;52.08;;;16.58;;
58928;SDS011;44713;53.378;10.022;2023-02-15T08:31:56;30.05;;;16.35;;
58928;SDS011;44713;53.378;10.022;2023-02-15T08:34:26;36.28;;;15.07;;
58928;SDS011;44713;53.378;10.022;2023-02-15T08:37:02;40.85;;;13.27;;
58928;SDS011;44713;53.378;10.022;2023-02-15T08:39:27;55.63;;;16.85;;
58928;SDS011;44713;53.378;10.022;2023-02-15T08:41:53;47.67;;;17.33;;
58928;SDS011;44713;53.378;10.022;2023-02-15T08:44:19;34.53;;;16.08;;
58928;SDS011;44713;53.378;10.022;2023-02-15T08:46:46;43.60;;;18.15;;
58928;SDS011;44713;53.378;10.022;2023-02-15T08:49:19;38.22;;;16.90;;
58928;SDS011;44713;53.378;10.022;2023-02-15T08:51:46;27.67;;;15.57;;
58928;SDS011;44713;53.378;10.022;2023-02-15T08:54:13;29.90;;;15.63;;
58928;SDS011;44713;53.378;10.022;2023-02-15T08:56:41;29.42;;;15.98;;
58928;SDS011;44713;53.378;10.022;2023-02-15T08:59:12;26.83;;;16.48;;
58928;SDS011;44713;53.378;10.022;2023-02-15T09:01:39;24.85;;;14.45;;
58928;SDS011;44713;53.378;10.022;2023-02-15T09:04:05;27.42;;;15.05;;
58928;SDS011;44713;53.378;10.022;2023-02-15T09:06:33;29.33;;;16.63;;
58928;SDS011;44713;53.378;10.022;2023-02-15T09:09:00;36.22;;;16.80;;
58928;SDS011;44713;53.378;10.022;2023-02-15T09:11:27;50.63;;;15.82;;
58928;SDS011;44713;53.378;10.022;2023-02-15T09:13:55;22.42;;;16.15;;
58928;SDS011;44713;53.378;10.022;2023-02-15T09:16:23;32.20;;;14.70;;
58928;SDS011;44713;53.378;10.022;2023-02-15T09:18:50;31.58;;;17.45;;
58928;SDS011;44713;53.378;10.022;2023-02-15T09:21:17;33.22;;;16.85;;
58928;SDS011;44713;53.378;10.022;2023-02-15T09:23:45;24.40;;;16.33;;
58928;SDS011;44713;53.378;10.022;2023-02-15T09:26:12;27.73;;;16.52;;
58928;SDS011;44713;53.378;10.022;2023-02-15T09:28:40;24.45;;;16.33;;
58928;SDS011;44713;53.378;10.022;2023-02-15T09:31:06;30.20;;;15.70;;
58928;SDS011;44713;53.378;10.022;2023-02-15T09:33:33;24.10;;;16.30;;
58928;SDS011;44713;53.378;10.022;2023-02-15T09:35:59;21.02;;;13.95;;
58928;SDS011;44713;53.378;10.022;2023-02-15T09:38:26;23.75;;;16.58;;
58928;SDS011;44713;53.378;10.022;2023-02-15T09:41:14;32.47;;;15.93;;
58928;SDS011;44713;53.378;10.022;2023-02-15T09:43:51;22.83;;;16.48;;
58928;SDS011;44713;53.378;10.022;2023-02-15T09:52:31;22.00;;;14.70;;
58928;SDS011;44713;53.378;10.022;2023-02-15T09:55:24;21.00;;;14.27;;
58928;SDS011;44713;53.378;10.022;2023-02-15T09:58:12;20.77;;;14.70;;
58928;SDS011;44713;53.378;10.022;2023-02-15T10:00:52;25.42;;;15.93;;
58928;SDS011;44713;53.378;10.022;2023-02-15T10:06:20;27.25;;;14.85;;
58928;SDS011;44713;53.378;10.022;2023-02-15T10:23:31;24.55;;;15.68;;
58928;SDS011;44713;53.378;10.022;2023-02-15T10:28:51;21.83;;;14.93;;
58928;SDS011;44713;53.378;10.022;2023-02-15T10:44:59;23.05;;;16.25;;
58928;SDS011;44713;53.378;10.022;2023-02-15T10:50:20;28.65;;;18.27;;
58928;SDS011;44713;53.378;10.022;2023-02-15T10:58:23;22.42;;;16.20;;
58928;SDS011;44713;53.378;10.022;2023-02-15T11:03:41;21.90;;;16.10;;
58928;SDS011;44713;53.378;10.022;2023-02-15T11:06:17;21.63;;;15.35;;
58928;SDS011;44713;53.378;10.022;2023-02-15T11:08:45;20.65;;;15.75;;
58928;SDS011;44713;53.378;10.022;2023-02-15T11:11:47;20.48;;;16.33;;
58928;SDS011;44713;53.378;10.022;2023-02-15T11:14:13;21.33;;;15.18;;
58928;SDS011;44713;53.378;10.022;2023-02-15T11:16:48;19.13;;;14.70;;
58928;SDS011;44713;53.378;10.022;2023-02-15T11:21:53;20.20;;;14.98;;
58928;SDS011;44713;53.378;10.022;2023-02-15T11:24:24;18.85;;;15.00;;
58928;SDS011;44713;53.378;10.022;2023-02-15T11:26:57;20.40;;;15.05;;
58928;SDS011;44713;53.378;10.022;2023-02-15T11:32:20;20.05;;;15.35;;
58928;SDS011;44713;53.378;10.022;2023-02-15T11:40:22;22.60;;;15.00;;
58928;SDS011;44713;53.378;10.022;2023-02-15T11:42:51;21.63;;;15.63;;
58928;SDS011;44713;53.378;10.022;2023-02-15T11:45:42;21.35;;;15.68;;
58928;SDS011;44713;53.378;10.022;2023-02-15T11:48:14;20.92;;;16.10;;
58928;SDS011;44713;53.378;10.022;2023-02-15T11:50:41;19.40;;;15.27;;
58928;SDS011;44713;53.378;10.022;2023-02-15T11:53:20;21.27;;;15.35;;
58928;SDS011;44713;53.378;10.022;2023-02-15T11:55:49;19.92;;;15.38;;
58928;SDS011;44713;53.378;10.022;2023-02-15T11:58:23;21.98;;;15.27;;
58928;SDS011;44713;53.378;10.022;2023-02-15T12:01:00;22.83;;;16.48;;
58928;SDS011;44713;53.378;10.022;2023-02-15T12:06:11;22.58;;;14.95;;
58928;SDS011;44713;53.378;10.022;2023-02-15T12:08:42;22.35;;;16.05;;
58928;SDS011;44713;53.378;10.022;2023-02-15T12:11:17;21.30;;;15.88;;
58928;SDS011;44713;53.378;10.022;2023-02-15T12:13:59;22.20;;;16.10;;
58928;SDS011;44713;53.378;10.022;2023-02-15T12:19:00;21.42;;;16.27;;
58928;SDS011;44713;53.378;10.022;2023-02-15T12:21:31;21.38;;;16.15;;
58928;SDS011;44713;53.378;10.022;2023-02-15T12:24:03;21.60;;;15.80;;
58928;SDS011;44713;53.378;10.022;2023-02-15T12:27:01;19.58;;;14.35;;
58928;SDS011;44713;53.378;10.022;2023-02-15T12:29:50;19.58;;;14.88;;
58928;SDS011;44713;53.378;10.022;2023-02-15T12:32:27;25.67;;;16.70;;
58928;SDS011;44713;53.378;10.022;2023-02-15T12:34:59;22.27;;;15.55;;
58928;SDS011;44713;53.378;10.022;2023-02-15T12:37:34;25.15;;;16.42;;
58928;SDS011;44713;53.378;10.022;2023-02-15T12:40:02;22.73;;;15.75;;
58928;SDS011;44713;53.378;10.022;2023-02-15T12:42:44;22.38;;;15.90;;
58928;SDS011;44713;53.378;10.022;2023-02-15T12:45:26;19.42;;;14.95;;
58928;SDS011;44713;53.378;10.022;2023-02-15T12:48:10;19.88;;;15.15;;
58928;SDS011;44713;53.378;10.022;2023-02-15T12:50:50;20.85;;;15.68;;
58928;SDS011;44713;53.378;10.022;2023-02-15T12:53:23;21.77;;;15.50;;
58928;SDS011;44713;53.378;10.022;2023-02-15T12:55:58;19.70;;;15.48;;
58928;SDS011;44713;53.378;10.022;2023-02-15T13:01:28;20.67;;;14.80;;
58928;SDS011;44713;53.378;10.022;2023-02-15T13:04:01;21.77;;;15.55;;
58928;SDS011;44713;53.378;10.022;2023-02-15T13:06:30;24.48;;;15.82;;
58928;SDS011;44713;53.378;10.022;2023-02-15T13:09:16;21.38;;;16.27;;
58928;SDS011;44713;53.378;10.022;2023-02-15T13:11:45;22.67;;;16.48;;
58928;SDS011;44713;53.378;10.022;2023-02-15T13:14:18;20.95;;;15.82;;
58928;SDS011;44713;53.378;10.022;2023-02-15T13:16:47;25.60;;;17.98;;
58928;SDS011;44713;53.378;10.022;2023-02-15T13:19:34;24.42;;;16.55;;
58928;SDS011;44713;53.378;10.022;2023-02-15T13:22:06;23.50;;;17.30;;
58928;SDS011;44713;53.378;10.022;2023-02-15T13:24:43;19.67;;;15.40;;
58928;SDS011;44713;53.378;10.022;2023-02-15T13:27:16;22.98;;;17.48;;
58928;SDS011;44713;53.378;10.022;2023-02-15T13:29:44;20.95;;;16.33;;
58928;SDS011;44713;53.378;10.022;2023-02-15T13:32:30;25.38;;;17.65;;
58928;SDS011;44713;53.378;10.022;2023-02-15T13:34:58;24.10;;;17.23;;
58928;SDS011;44713;53.378;10.022;2023-02-15T13:37:37;22.55;;;16.98;;
58928;SDS011;44713;53.378;10.022;2023-02-15T13:40:33;24.13;;;18.27;;
58928;SDS011;44713;53.378;10.022;2023-02-15T13:45:59;26.17;;;18.80;;
58928;SDS011;44713;53.378;10.022;2023-02-15T13:49:00;30.02;;;18.88;;
58928;SDS011;44713;53.378;10.022;2023-02-15T14:11:29;20.27;;;16.67;;
58928;SDS011;44713;53.378;10.022;2023-02-15T14:28:25;21.05;;;15.52;;
58928;SDS011;44713;53.378;10.022;2023-02-15T14:31:11;22.73;;;17.02;;
58928;SDS011;44713;53.378;10.022;2023-02-15T14:33:39;20.83;;;16.25;;
58928;SDS011;44713;53.378;10.022;2023-02-15T14:36:08;21.55;;;15.90;;
58928;SDS011;44713;53.378;10.022;2023-02-15T14:38:48;20.33;;;16.00;;
58928;SDS011;44713;53.378;10.022;2023-02-15T14:41:39;23.17;;;17.17;;
58928;SDS011;44713;53.378;10.022;2023-02-15T14:44:29;19.85;;;16.00;;
58928;SDS011;44713;53.378;10.022;2023-02-15T14:47:08;23.30;;;16.75;;
58928;SDS011;44713;53.378;10.022;2023-02-15T14:49:44;21.70;;;17.17;;
58928;SDS011;44713;53.378;10.022;2023-02-15T14:52:10;24.60;;;17.55;;
58928;SDS011;44713;53.378;10.022;2023-02-15T15:07:03;22.67;;;17.67;;
58928;SDS011;44713;53.378;10.022;2023-02-15T15:09:48;20.05;;;14.63;;
58928;SDS011;44713;53.378;10.022;2023-02-15T15:14:50;22.85;;;17.40;;
58928;SDS011;44713;53.378;10.022;2023-02-15T15:22:46;28.10;;;19.05;;
58928;SDS011;44713;53.378;10.022;2023-02-15T15:28:02;24.42;;;18.58;;
58928;SDS011;44713;53.378;10.022;2023-02-15T15:38:13;24.80;;;18.90;;
58928;SDS011;44713;53.378;10.022;2023-02-15T15:40:55;24.52;;;17.52;;
58928;SDS011;44713;53.378;10.022;2023-02-15T15:49:17;22.63;;;16.67;;
58928;SDS011;44713;53.378;10.022;2023-02-15T15:51:45;21.88;;;16.67;;
58928;SDS011;44713;53.378;10.022;2023-02-15T15:54:18;26.88;;;18.90;;
58928;SDS011;44713;53.378;10.022;2023-02-15T15:56:47;24.45;;;17.67;;
58928;SDS011;44713;53.378;10.022;2023-02-15T15:59:18;20.65;;;16.13;;
58928;SDS011;44713;53.378;10.022;2023-02-15T16:01:46;27.95;;;18.52;;
58928;SDS011;44713;53.378;10.022;2023-02-15T16:04:12;25.08;;;17.80;;
58928;SDS011;44713;53.378;10.022;2023-02-15T16:06:46;27.83;;;19.42;;
58928;SDS011;44713;53.378;10.022;2023-02-15T16:09:16;31.02;;;18.55;;
58928;SDS011;44713;53.378;10.022;2023-02-15T16:11:50;24.10;;;16.60;;
58928;SDS011;44713;53.378;10.022;2023-02-15T16:14:21;29.05;;;18.92;;
58928;SDS011;44713;53.378;10.022;2023-02-15T16:16:54;30.63;;;22.08;;
58928;SDS011;44713;53.378;10.022;2023-02-15T16:19:24;29.33;;;19.38;;
58928;SDS011;44713;53.378;10.022;2023-02-15T16:21:52;26.38;;;18.17;;
58928;SDS011;44713;53.378;10.022;2023-02-15T16:29:51;31.05;;;21.80;;
58928;SDS011;44713;53.378;10.022;2023-02-15T16:32:21;31.30;;;20.90;;
58928;SDS011;44713;53.378;10.022;2023-02-15T16:34:58;28.15;;;19.13;;
58928;SDS011;44713;53.378;10.022;2023-02-15T16:37:25;33.88;;;23.30;;
58928;SDS011;44713;53.378;10.022;2023-02-15T16:40:01;32.83;;;22.20;;
58928;SDS011;44713;53.378;10.022;2023-02-15T16:42:27;29.88;;;21.27;;
58928;SDS011;44713;53.378;10.022;2023-02-15T16:44:58;24.05;;;16.30;;
58928;SDS011;44713;53.378;10.022;2023-02-15T16:47:39;30.63;;;19.88;;
58928;SDS011;44713;53.378;10.022;2023-02-15T16:50:07;34.15;;;22.08;;
58928;SDS011;44713;53.378;10.022;2023-02-15T16:52:43;34.25;;;22.80;;
58928;SDS011;44713;53.378;10.022;2023-02-15T16:55:16;24.13;;;17.15;;
58928;SDS011;44713;53.378;10.022;2023-02-15T16:57:47;31.77;;;22.60;;
58928;SDS011;44713;53.378;10.022;2023-02-15T17:00:21;29.42;;;19.67;;
58928;SDS011;44713;53.378;10.022;2023-02-15T17:03:32;33.08;;;22.52;;
58928;SDS011;44713;53.378;10.022;2023-02-15T17:05:42;29.80;;;19.23;;
58928;SDS011;44713;53.378;10.022;2023-02-15T17:08:27;33.40;;;21.42;;
58928;SDS011;44713;53.378;10.022;2023-02-15T17:13:29;28.00;;;18.98;;
58928;SDS011;44713;53.378;10.022;2023-02-15T17:18:24;31.90;;;21.05;;
58928;SDS011;44713;53.378;10.022;2023-02-15T17:20:55;36.10;;;22.00;;
58928;SDS011;44713;53.378;10.022;2023-02-15T17:23:46;30.98;;;20.65;;
58928;SDS011;44713;53.378;10.022;2023-02-15T17:26:14;32.13;;;21.85;;
58928;SDS011;44713;53.378;10.022;2023-02-15T17:31:21;34.95;;;22.83;;
58928;SDS011;44713;53.378;10.022;2023-02-15T17:33:51;31.80;;;22.05;;
58928;SDS011;44713;53.378;10.022;2023-02-15T17:36:23;33.70;;;23.35;;
58928;SDS011;44713;53.378;10.022;2023-02-15T17:41:22;24.77;;;17.20;;